sensor_id;sensor_type;location;lat;lon;timestamp;pressure;altitude;pressure_sealevel;temperature;humidity
72548;BME280;60570;50.848;6.776;2023-05-22T00:00:22;100294.09;;;20.58;59.77
72548;BME280;60570;50.848;6.776;2023-05-22T00:01:23;100282.41;;;20.56;59.62
72548;BME280;60570;50.848;6.776;2023-05-22T00:02:25;100286.00;;;20.56;59.98
72548;BME280;60570;50.848;6.776;2023-05-22T00:03:29;100286.00;;;20.56;59.77
72548;BME280;60570;50.848;6.776;2023-05-22T00:04:32;100285.22;;;20.56;60.06
72548;BME280;60570;50.848;6.776;2023-05-22T00:05:33;100283.59;;;20.54;60.12
72548;BME280;60570;50.848;6.776;2023-05-22T00:06:41;100277.13;;;20.54;60.19
72548;BME280;60570;50.848;6.776;2023-05-22T00:07:42;100279.19;;;20.53;59.74
72548;BME280;60570;50.848;6.776;2023-05-22T00:08:45;100273.53;;;20.53;59.75
72548;BME280;60570;50.848;6.776;2023-05-22T00:09:46;100286.03;;;20.52;59.90
72548;BME280;60570;50.848;6.776;2023-05-22T00:10:47;100277.53;;;20.52;60.07
72548;BME280;60570;50.848;6.776;2023-05-22T00:11:48;100279.97;;;20.54;60.06
72548;BME280;60570;50.848;6.776;2023-05-22T00:12:49;100279.56;;;20.52;59.77
72548;BME280;60570;50.848;6.776;2023-05-22T00:13:50;100275.13;;;20.51;59.76
72548;BME280;60570;50.848;6.776;2023-05-22T00:14:52;100280.78;;;20.51;59.47
72548;BME280;60570;50.848;6.776;2023-05-22T00:15:53;100279.56;;;20.52;59.93
72548;BME280;60570;50.848;6.776;2023-05-22T00:16:55;100277.16;;;20.50;59.92
72548;BME280;60570;50.848;6.776;2023-05-22T00:17:57;100277.16;;;20.50;60.02
72548;BME280;60570;50.848;6.776;2023-05-22T00:19:00;100278.38;;;20.49;59.76
72548;BME280;60570;50.848;6.776;2023-05-22T00:20:01;100269.09;;;20.49;59.69
72548;BME280;60570;50.848;6.776;2023-05-22T00:21:08;100272.34;;;20.47;59.84
72548;BME280;60570;50.848;6.776;2023-05-22T00:22:08;100268.28;;;20.48;59.69
72548;BME280;60570;50.848;6.776;2023-05-22T00:23:12;100265.88;;;20.47;59.82
72548;BME280;60570;50.848;6.776;2023-05-22T00:24:13;100264.25;;;20.46;59.54
72548;BME280;60570;50.848;6.776;2023-05-22T00:25:17;100268.69;;;20.47;59.44
72548;BME280;60570;50.848;6.776;2023-05-22T00:26:19;100272.72;;;20.46;59.96
72548;BME280;60570;50.848;6.776;2023-05-22T00:27:21;100264.25;;;20.46;59.87
72548;BME280;60570;50.848;6.776;2023-05-22T00:28:22;100263.47;;;20.45;59.50
72548;BME280;60570;50.848;6.776;2023-05-22T00:29:23;100265.47;;;20.45;59.89
72548;BME280;60570;50.848;6.776;2023-05-22T00:30:24;100265.47;;;20.45;59.53
72548;BME280;60570;50.848;6.776;2023-05-22T00:31:25;100262.66;;;20.45;59.75
72548;BME280;60570;50.848;6.776;2023-05-22T00:32:26;100259.84;;;20.45;59.80
72548;BME280;60570;50.848;6.776;2023-05-22T00:33:28;100267.50;;;20.44;59.94
72548;BME280;60570;50.848;6.776;2023-05-22T00:34:30;100258.25;;;20.44;59.73
72548;BME280;60570;50.848;6.776;2023-05-22T00:35:32;100267.91;;;20.43;59.58
72548;BME280;60570;50.848;6.776;2023-05-22T00:36:32;100263.50;;;20.42;59.92
72548;BME280;60570;50.848;6.776;2023-05-22T00:37:35;100267.50;;;20.41;59.79
72548;BME280;60570;50.848;6.776;2023-05-22T00:38:35;100260.66;;;20.42;59.91
72548;BME280;60570;50.848;6.776;2023-05-22T00:39:37;100263.09;;;20.40;59.59
72548;BME280;60570;50.848;6.776;2023-05-22T00:40:38;100261.06;;;20.40;59.68
72548;BME280;60570;50.848;6.776;2023-05-22T00:41:39;100270.75;;;20.39;59.55
72548;BME280;60570;50.848;6.776;2023-05-22T00:42:41;100259.47;;;20.39;59.86
72548;BME280;60570;50.848;6.776;2023-05-22T00:43:43;100260.66;;;20.38;59.78
72548;BME280;60570;50.848;6.776;2023-05-22T00:44:44;100269.94;;;20.39;59.73
72548;BME280;60570;50.848;6.776;2023-05-22T00:45:47;100264.28;;;20.39;59.64
72548;BME280;60570;50.848;6.776;2023-05-22T00:46:49;100259.06;;;20.37;59.60
72548;BME280;60570;50.848;6.776;2023-05-22T00:47:52;100265.91;;;20.36;59.84
72548;BME280;60570;50.848;6.776;2023-05-22T00:48:53;100267.94;;;20.36;59.98
72548;BME280;60570;50.848;6.776;2023-05-22T00:49:56;100267.13;;;20.35;59.71
72548;BME280;60570;50.848;6.776;2023-05-22T00:50:58;100266.31;;;20.35;59.68
72548;BME280;60570;50.848;6.776;2023-05-22T00:52:01;100269.13;;;20.35;59.68
72548;BME280;60570;50.848;6.776;2023-05-22T00:53:02;100268.31;;;20.34;59.94
72548;BME280;60570;50.848;6.776;2023-05-22T00:54:04;100271.13;;;20.34;59.91
72548;BME280;60570;50.848;6.776;2023-05-22T00:55:06;100263.09;;;20.33;59.63
72548;BME280;60570;50.848;6.776;2023-05-22T00:56:08;100266.72;;;20.33;60.00
72548;BME280;60570;50.848;6.776;2023-05-22T00:57:09;100261.50;;;20.32;59.70
72548;BME280;60570;50.848;6.776;2023-05-22T00:58:16;100267.94;;;20.32;59.63
72548;BME280;60570;50.848;6.776;2023-05-22T00:59:18;100269.97;;;20.32;59.62
72548;BME280;60570;50.848;6.776;2023-05-22T01:00:20;100263.50;;;20.31;59.72
72548;BME280;60570;50.848;6.776;2023-05-22T01:01:21;100273.97;;;20.31;60.09
72548;BME280;60570;50.848;6.776;2023-05-22T01:02:25;100271.16;;;20.31;59.73
72548;BME280;60570;50.848;6.776;2023-05-22T01:03:27;100270.38;;;20.30;59.77
72548;BME280;60570;50.848;6.776;2023-05-22T01:04:31;100274.41;;;20.29;59.74
72548;BME280;60570;50.848;6.776;2023-05-22T01:05:33;100270.38;;;20.30;60.01
72548;BME280;60570;50.848;6.776;2023-05-22T01:06:35;100284.47;;;20.30;59.68
72548;BME280;60570;50.848;6.776;2023-05-22T01:07:36;100282.03;;;20.29;59.95
72548;BME280;60570;50.848;6.776;2023-05-22T01:08:38;100281.25;;;20.28;59.79
72548;BME280;60570;50.848;6.776;2023-05-22T01:09:38;100283.28;;;20.28;59.62
72548;BME280;60570;50.848;6.776;2023-05-22T01:10:40;100281.25;;;20.28;59.82
72548;BME280;60570;50.848;6.776;2023-05-22T01:11:47;100275.63;;;20.28;59.69
72548;BME280;60570;50.848;6.776;2023-05-22T01:12:55;100277.63;;;20.28;59.76
72548;BME280;60570;50.848;6.776;2023-05-22T01:14:04;100276.81;;;20.27;59.87
72548;BME280;60570;50.848;6.776;2023-05-22T01:15:16;100276.00;;;20.27;59.76
72548;BME280;60570;50.848;6.776;2023-05-22T01:16:24;100273.59;;;20.25;59.91
72548;BME280;60570;50.848;6.776;2023-05-22T01:17:35;100276.41;;;20.25;59.66
72548;BME280;60570;50.848;6.776;2023-05-22T01:18:44;100271.19;;;20.24;59.96
72548;BME280;60570;50.848;6.776;2023-05-22T01:20:03;100274.00;;;20.24;60.05
72548;BME280;60570;50.848;6.776;2023-05-22T01:21:12;100272.38;;;20.23;59.94
72548;BME280;60570;50.848;6.776;2023-05-22T01:22:29;100274.41;;;20.22;59.91
72548;BME280;60570;50.848;6.776;2023-05-22T01:25:55;100271.19;;;20.20;60.04
72548;BME280;60570;50.848;6.776;2023-05-22T01:27:33;100273.59;;;20.22;59.96
72548;BME280;60570;50.848;6.776;2023-05-22T01:29:07;100269.56;;;20.19;59.83
72548;BME280;60570;50.848;6.776;2023-05-22T01:30:19;100272.41;;;20.19;59.84
72548;BME280;60570;50.848;6.776;2023-05-22T01:31:24;100272.41;;;20.19;59.74
72548;BME280;60570;50.848;6.776;2023-05-22T01:32:27;100265.16;;;20.18;59.70
72548;BME280;60570;50.848;6.776;2023-05-22T01:33:34;100272.78;;;20.18;59.73
72548;BME280;60570;50.848;6.776;2023-05-22T01:34:36;100266.31;;;20.17;59.77
72548;BME280;60570;50.848;6.776;2023-05-22T01:35:39;100267.56;;;20.16;60.03
72548;BME280;60570;50.848;6.776;2023-05-22T01:36:43;100272.38;;;20.16;59.78
72548;BME280;60570;50.848;6.776;2023-05-22T01:37:47;100263.09;;;20.15;59.67
72548;BME280;60570;50.848;6.776;2023-05-22T01:38:48;100268.75;;;20.15;59.86
72548;BME280;60570;50.848;6.776;2023-05-22T01:39:51;100271.97;;;20.14;59.82
72548;BME280;60570;50.848;6.776;2023-05-22T01:40:52;100271.16;;;20.13;59.87
72548;BME280;60570;50.848;6.776;2023-05-22T01:41:55;100269.16;;;20.14;59.94
72548;BME280;60570;50.848;6.776;2023-05-22T01:42:57;100271.16;;;20.13;59.87
72548;BME280;60570;50.848;6.776;2023-05-22T01:43:59;100263.13;;;20.12;59.66
72548;BME280;60570;50.848;6.776;2023-05-22T01:45:00;100267.56;;;20.13;59.69
72548;BME280;60570;50.848;6.776;2023-05-22T01:46:02;100267.56;;;20.13;60.03
72548;BME280;60570;50.848;6.776;2023-05-22T01:47:05;100269.56;;;20.12;59.95
72548;BME280;60570;50.848;6.776;2023-05-22T01:48:07;100270.75;;;20.11;60.03
72548;BME280;60570;50.848;6.776;2023-05-22T01:49:08;100261.91;;;20.09;59.71
72548;BME280;60570;50.848;6.776;2023-05-22T01:50:09;100271.19;;;20.10;59.98
72548;BME280;60570;50.848;6.776;2023-05-22T01:51:14;100266.75;;;20.09;59.84
72548;BME280;60570;50.848;6.776;2023-05-22T01:52:23;100268.34;;;20.10;59.84
72548;BME280;60570;50.848;6.776;2023-05-22T01:53:29;100268.75;;;20.08;59.93
72548;BME280;60570;50.848;6.776;2023-05-22T01:54:37;100266.75;;;20.09;59.83
72548;BME280;60570;50.848;6.776;2023-05-22T01:55:45;100261.91;;;20.09;60.14
72548;BME280;60570;50.848;6.776;2023-05-22T01:56:52;100267.13;;;20.07;59.89
72548;BME280;60570;50.848;6.776;2023-05-22T01:57:59;100261.50;;;20.07;60.02
72548;BME280;60570;50.848;6.776;2023-05-22T01:59:08;100256.28;;;20.06;59.96
72548;BME280;60570;50.848;6.776;2023-05-22T02:00:12;100258.28;;;20.05;59.85
72548;BME280;60570;50.848;6.776;2023-05-22T02:01:16;100258.69;;;20.04;59.98
72548;BME280;60570;50.848;6.776;2023-05-22T02:02:22;100257.09;;;20.03;59.93
72548;BME280;60570;50.848;6.776;2023-05-22T02:03:26;100253.47;;;20.02;60.18
72548;BME280;60570;50.848;6.776;2023-05-22T02:04:30;100266.34;;;20.03;59.80
72548;BME280;60570;50.848;6.776;2023-05-22T02:05:33;100257.50;;;20.01;60.05
72548;BME280;60570;50.848;6.776;2023-05-22T02:06:36;100263.94;;;20.02;59.97
72548;BME280;60570;50.848;6.776;2023-05-22T02:07:39;100258.69;;;20.00;60.08
72548;BME280;60570;50.848;6.776;2023-05-22T02:08:42;100254.69;;;20.01;60.20
72548;BME280;60570;50.848;6.776;2023-05-22T02:09:44;100258.31;;;19.98;60.22
72548;BME280;60570;50.848;6.776;2023-05-22T02:10:48;100257.09;;;19.99;60.11
72548;BME280;60570;50.848;6.776;2023-05-22T02:11:49;100262.75;;;19.99;60.14
72548;BME280;60570;50.848;6.776;2023-05-22T02:12:52;100261.94;;;19.99;60.03
72548;BME280;60570;50.848;6.776;2023-05-22T02:13:53;100261.94;;;19.99;59.86
72548;BME280;60570;50.848;6.776;2023-05-22T02:14:56;100265.94;;;19.98;59.96
72548;BME280;60570;50.848;6.776;2023-05-22T02:15:57;100269.59;;;19.98;60.11
72548;BME280;60570;50.848;6.776;2023-05-22T02:16:59;100265.94;;;19.98;60.02
72548;BME280;60570;50.848;6.776;2023-05-22T02:18:08;100268.00;;;19.97;59.96
72548;BME280;60570;50.848;6.776;2023-05-22T02:19:12;100267.19;;;19.97;60.27
72548;BME280;60570;50.848;6.776;2023-05-22T02:20:14;100265.16;;;19.97;60.05
72548;BME280;60570;50.848;6.776;2023-05-22T02:21:16;100261.53;;;19.97;60.04
72548;BME280;60570;50.848;6.776;2023-05-22T02:22:17;100261.94;;;19.95;60.19
72548;BME280;60570;50.848;6.776;2023-05-22T02:23:19;100262.72;;;19.96;60.10
72548;BME280;60570;50.848;6.776;2023-05-22T02:24:20;100261.13;;;19.95;60.03
72548;BME280;60570;50.848;6.776;2023-05-22T02:25:22;100265.16;;;19.94;60.17
72548;BME280;60570;50.848;6.776;2023-05-22T02:26:23;100267.19;;;19.93;60.35
72548;BME280;60570;50.848;6.776;2023-05-22T02:27:25;100265.56;;;19.92;60.20
72548;BME280;60570;50.848;6.776;2023-05-22T02:28:25;100267.56;;;19.92;60.13
72548;BME280;60570;50.848;6.776;2023-05-22T02:29:27;100267.19;;;19.93;60.44
72548;BME280;60570;50.848;6.776;2023-05-22T02:30:28;100266.38;;;19.93;60.28
72548;BME280;60570;50.848;6.776;2023-05-22T02:31:29;100269.19;;;19.93;59.96
72548;BME280;60570;50.848;6.776;2023-05-22T02:32:30;100265.56;;;19.92;59.86
72548;BME280;60570;50.848;6.776;2023-05-22T02:33:34;100266.78;;;19.91;60.16
72548;BME280;60570;50.848;6.776;2023-05-22T02:34:34;100263.97;;;19.91;59.97
72548;BME280;60570;50.848;6.776;2023-05-22T02:35:37;100265.97;;;19.91;60.09
72548;BME280;60570;50.848;6.776;2023-05-22T02:36:37;100270.78;;;19.90;60.43
72548;BME280;60570;50.848;6.776;2023-05-22T02:37:39;100264.34;;;19.90;60.13
72548;BME280;60570;50.848;6.776;2023-05-22T02:38:40;100260.75;;;19.89;59.87
72548;BME280;60570;50.848;6.776;2023-05-22T02:39:41;100264.75;;;19.88;60.17
72548;BME280;60570;50.848;6.776;2023-05-22T02:40:42;100275.25;;;19.88;59.96
72548;BME280;60570;50.848;6.776;2023-05-22T02:41:44;100261.94;;;19.88;60.21
72548;BME280;60570;50.848;6.776;2023-05-22T02:42:45;100267.56;;;19.88;60.06
72548;BME280;60570;50.848;6.776;2023-05-22T02:43:46;100258.72;;;19.86;60.19
72548;BME280;60570;50.848;6.776;2023-05-22T02:44:47;100257.53;;;19.87;59.96
72548;BME280;60570;50.848;6.776;2023-05-22T02:45:48;100265.97;;;19.87;60.26
72548;BME280;60570;50.848;6.776;2023-05-22T02:46:49;100261.94;;;19.85;60.22
72548;BME280;60570;50.848;6.776;2023-05-22T02:47:51;100255.13;;;19.86;60.12
72548;BME280;60570;50.848;6.776;2023-05-22T02:48:53;100261.94;;;19.85;60.44
72548;BME280;60570;50.848;6.776;2023-05-22T02:49:54;100256.69;;;19.87;60.69
72548;BME280;60570;50.848;6.776;2023-05-22T02:50:57;100259.13;;;19.85;60.25
72548;BME280;60570;50.848;6.776;2023-05-22T02:51:58;100253.47;;;19.85;60.20
72548;BME280;60570;50.848;6.776;2023-05-22T02:52:59;100252.66;;;19.84;60.29
72548;BME280;60570;50.848;6.776;2023-05-22T02:54:01;100250.25;;;19.83;60.29
72548;BME280;60570;50.848;6.776;2023-05-22T02:55:01;100259.53;;;19.83;60.22
72548;BME280;60570;50.848;6.776;2023-05-22T02:56:04;100253.09;;;19.83;60.38
72548;BME280;60570;50.848;6.776;2023-05-22T02:57:05;100250.25;;;19.83;60.07
72548;BME280;60570;50.848;6.776;2023-05-22T02:58:06;100251.88;;;19.80;60.42
72548;BME280;60570;50.848;6.776;2023-05-22T02:59:10;100253.09;;;19.83;60.28
72548;BME280;60570;50.848;6.776;2023-05-22T03:00:12;100249.03;;;19.80;60.38
72548;BME280;60570;50.848;6.776;2023-05-22T03:01:13;100246.22;;;19.80;60.26
72548;BME280;60570;50.848;6.776;2023-05-22T03:02:15;100246.63;;;19.79;60.61
72548;BME280;60570;50.848;6.776;2023-05-22T03:03:16;100245.81;;;19.78;60.19
72548;BME280;60570;50.848;6.776;2023-05-22T03:04:19;100243.00;;;19.78;60.26
72548;BME280;60570;50.848;6.776;2023-05-22T03:05:20;100242.22;;;19.78;60.30
72548;BME280;60570;50.848;6.776;2023-05-22T03:06:22;100243.81;;;19.79;60.29
72548;BME280;60570;50.848;6.776;2023-05-22T03:07:25;100238.59;;;19.77;60.24
72548;BME280;60570;50.848;6.776;2023-05-22T03:08:28;100236.97;;;19.76;60.47
72548;BME280;60570;50.848;6.776;2023-05-22T03:09:30;100240.59;;;19.77;60.50
72548;BME280;60570;50.848;6.776;2023-05-22T03:10:32;100238.19;;;19.75;60.31
72548;BME280;60570;50.848;6.776;2023-05-22T03:11:33;100243.00;;;19.75;60.31
72548;BME280;60570;50.848;6.776;2023-05-22T03:12:35;100240.19;;;19.75;60.38
72548;BME280;60570;50.848;6.776;2023-05-22T03:13:35;100238.19;;;19.75;60.31
72548;BME280;60570;50.848;6.776;2023-05-22T03:14:37;100235.78;;;19.74;60.32
72548;BME280;60570;50.848;6.776;2023-05-22T03:15:38;100247.06;;;19.74;60.46
72548;BME280;60570;50.848;6.776;2023-05-22T03:16:39;100241.41;;;19.74;60.62
72548;BME280;60570;50.848;6.776;2023-05-22T03:17:40;100236.97;;;19.73;60.36
72548;BME280;60570;50.848;6.776;2023-05-22T03:18:42;100240.19;;;19.71;60.50
72548;BME280;60570;50.848;6.776;2023-05-22T03:19:44;100238.19;;;19.72;60.42
72548;BME280;60570;50.848;6.776;2023-05-22T03:20:46;100248.66;;;19.71;60.36
72548;BME280;60570;50.848;6.776;2023-05-22T03:21:47;100240.19;;;19.71;60.33
72548;BME280;60570;50.848;6.776;2023-05-22T03:22:49;100247.06;;;19.70;60.35
72548;BME280;60570;50.848;6.776;2023-05-22T03:23:49;100236.56;;;19.71;60.56
72548;BME280;60570;50.848;6.776;2023-05-22T03:24:51;100239.81;;;19.69;60.40
72548;BME280;60570;50.848;6.776;2023-05-22T03:25:52;100245.84;;;19.67;60.31
72548;BME280;60570;50.848;6.776;2023-05-22T03:26:54;100243.84;;;19.68;60.60
72548;BME280;60570;50.848;6.776;2023-05-22T03:27:55;100247.44;;;19.68;60.67
72548;BME280;60570;50.848;6.776;2023-05-22T03:28:57;100247.03;;;19.66;60.23
72548;BME280;60570;50.848;6.776;2023-05-22T03:29:57;100249.06;;;19.66;60.75
72548;BME280;60570;50.848;6.776;2023-05-22T03:30:59;100245.44;;;19.65;60.47
72548;BME280;60570;50.848;6.776;2023-05-22T03:32:00;100243.03;;;19.67;60.71
72548;BME280;60570;50.848;6.776;2023-05-22T03:33:02;100245.03;;;19.67;60.31
72548;BME280;60570;50.848;6.776;2023-05-22T03:34:03;100239.41;;;19.63;60.58
72548;BME280;60570;50.848;6.776;2023-05-22T03:35:08;100241.81;;;19.65;60.55
72548;BME280;60570;50.848;6.776;2023-05-22T03:36:09;100245.84;;;19.64;60.42
72548;BME280;60570;50.848;6.776;2023-05-22T03:37:10;100242.22;;;19.63;60.57
72548;BME280;60570;50.848;6.776;2023-05-22T03:38:11;100242.22;;;19.63;60.54
72548;BME280;60570;50.848;6.776;2023-05-22T03:39:12;100241.81;;;19.65;60.55
72548;BME280;60570;50.848;6.776;2023-05-22T03:40:13;100243.03;;;19.64;60.36
72548;BME280;60570;50.848;6.776;2023-05-22T03:41:16;100253.50;;;19.63;60.52
72548;BME280;60570;50.848;6.776;2023-05-22T03:42:16;100250.28;;;19.61;60.68
72548;BME280;60570;50.848;6.776;2023-05-22T03:43:18;100249.47;;;19.61;60.80
72548;BME280;60570;50.848;6.776;2023-05-22T03:44:19;100249.06;;;19.59;60.72
72548;BME280;60570;50.848;6.776;2023-05-22T03:45:20;100250.69;;;19.60;60.73
72548;BME280;60570;50.848;6.776;2023-05-22T03:46:21;100250.28;;;19.58;60.46
72548;BME280;60570;50.848;6.776;2023-05-22T03:47:23;100246.66;;;19.61;60.78
72548;BME280;60570;50.848;6.776;2023-05-22T03:48:24;100253.50;;;19.60;60.48
72548;BME280;60570;50.848;6.776;2023-05-22T03:49:25;100251.88;;;19.59;60.77
72548;BME280;60570;50.848;6.776;2023-05-22T03:50:27;100256.72;;;19.58;60.72
72548;BME280;60570;50.848;6.776;2023-05-22T03:51:29;100254.69;;;19.59;60.70
72548;BME280;60570;50.848;6.776;2023-05-22T03:52:31;100252.28;;;19.57;60.58
72548;BME280;60570;50.848;6.776;2023-05-22T03:53:32;100249.06;;;19.59;60.36
72548;BME280;60570;50.848;6.776;2023-05-22T03:54:33;100248.66;;;19.57;60.47
72548;BME280;60570;50.848;6.776;2023-05-22T03:55:34;100255.50;;;19.56;60.70
72548;BME280;60570;50.848;6.776;2023-05-22T03:56:36;100252.69;;;19.56;60.68
72548;BME280;60570;50.848;6.776;2023-05-22T03:57:38;100255.50;;;19.56;60.48
72548;BME280;60570;50.848;6.776;2023-05-22T03:58:39;100252.69;;;19.56;60.71
72548;BME280;60570;50.848;6.776;2023-05-22T03:59:40;100253.09;;;19.54;60.73
72548;BME280;60570;50.848;6.776;2023-05-22T04:00:41;100246.25;;;19.55;60.99
72548;BME280;60570;50.848;6.776;2023-05-22T04:01:43;100242.22;;;19.53;60.72
72548;BME280;60570;50.848;6.776;2023-05-22T04:02:45;100252.28;;;19.54;60.53
72548;BME280;60570;50.848;6.776;2023-05-22T04:03:49;100245.84;;;19.53;60.53
72548;BME280;60570;50.848;6.776;2023-05-22T04:04:50;100251.47;;;19.53;60.79
72548;BME280;60570;50.848;6.776;2023-05-22T04:05:53;100244.25;;;19.52;60.66
72548;BME280;60570;50.848;6.776;2023-05-22T04:06:53;100246.25;;;19.52;60.49
72548;BME280;60570;50.848;6.776;2023-05-22T04:07:57;100245.03;;;19.53;60.81
72548;BME280;60570;50.848;6.776;2023-05-22T04:08:58;100252.69;;;19.52;60.73
72548;BME280;60570;50.848;6.776;2023-05-22T04:09:59;100249.88;;;19.52;60.62
72548;BME280;60570;50.848;6.776;2023-05-22T04:11:00;100251.06;;;19.51;60.70
72548;BME280;60570;50.848;6.776;2023-05-22T04:12:02;100249.06;;;19.52;60.69
72548;BME280;60570;50.848;6.776;2023-05-22T04:13:03;100257.13;;;19.50;60.68
72548;BME280;60570;50.848;6.776;2023-05-22T04:14:05;100259.13;;;19.49;60.90
72548;BME280;60570;50.848;6.776;2023-05-22T04:15:07;100255.91;;;19.47;60.79
72548;BME280;60570;50.848;6.776;2023-05-22T04:16:09;100257.53;;;19.48;60.84
72548;BME280;60570;50.848;6.776;2023-05-22T04:17:10;100259.13;;;19.49;60.75
72548;BME280;60570;50.848;6.776;2023-05-22T04:18:12;100267.97;;;19.48;60.74
72548;BME280;60570;50.848;6.776;2023-05-22T04:19:12;100266.34;;;19.47;60.92
72548;BME280;60570;50.848;6.776;2023-05-22T04:20:14;100272.81;;;19.47;60.77
72548;BME280;60570;50.848;6.776;2023-05-22T04:21:16;100269.59;;;19.49;60.84
72548;BME280;60570;50.848;6.776;2023-05-22T04:22:18;100271.63;;;19.48;60.68
72548;BME280;60570;50.848;6.776;2023-05-22T04:23:19;100272.00;;;19.47;60.72
72548;BME280;60570;50.848;6.776;2023-05-22T04:24:20;100274.03;;;19.46;60.77
72548;BME280;60570;50.848;6.776;2023-05-22T04:25:22;100272.41;;;19.45;60.87
72548;BME280;60570;50.848;6.776;2023-05-22T04:26:23;100269.59;;;19.45;60.75
72548;BME280;60570;50.848;6.776;2023-05-22T04:27:25;100276.84;;;19.46;60.83
72548;BME280;60570;50.848;6.776;2023-05-22T04:28:29;100280.06;;;19.45;60.74
72548;BME280;60570;50.848;6.776;2023-05-22T04:29:29;100274.44;;;19.45;60.81
72548;BME280;60570;50.848;6.776;2023-05-22T04:30:31;100279.66;;;19.46;60.82
72548;BME280;60570;50.848;6.776;2023-05-22T04:31:33;100280.44;;;19.47;61.07
72548;BME280;60570;50.848;6.776;2023-05-22T04:32:34;100284.47;;;19.46;60.88
72548;BME280;60570;50.848;6.776;2023-05-22T04:33:36;100282.88;;;19.45;61.02
72548;BME280;60570;50.848;6.776;2023-05-22T04:34:37;100283.69;;;19.45;60.82
72548;BME280;60570;50.848;6.776;2023-05-22T04:35:38;100290.53;;;19.44;60.99
72548;BME280;60570;50.848;6.776;2023-05-22T04:36:42;100282.47;;;19.43;60.68
72548;BME280;60570;50.848;6.776;2023-05-22T04:37:44;100284.09;;;19.44;60.76
72548;BME280;60570;50.848;6.776;2023-05-22T04:38:46;100287.72;;;19.44;60.95
72548;BME280;60570;50.848;6.776;2023-05-22T04:39:46;100287.31;;;19.42;60.91
72548;BME280;60570;50.848;6.776;2023-05-22T04:40:52;100285.31;;;19.43;61.03
72548;BME280;60570;50.848;6.776;2023-05-22T04:41:53;100282.84;;;19.41;60.74
72548;BME280;60570;50.848;6.776;2023-05-22T04:42:55;100285.69;;;19.41;60.87
72548;BME280;60570;50.848;6.776;2023-05-22T04:43:59;100287.72;;;19.41;60.76
72548;BME280;60570;50.848;6.776;2023-05-22T04:45:04;100289.72;;;19.40;60.98
72548;BME280;60570;50.848;6.776;2023-05-22T04:46:07;100285.69;;;19.41;60.79
72548;BME280;60570;50.848;6.776;2023-05-22T04:47:08;100293.34;;;19.41;61.01
72548;BME280;60570;50.848;6.776;2023-05-22T04:48:10;100290.53;;;19.41;60.87
72548;BME280;60570;50.848;6.776;2023-05-22T04:49:12;100284.50;;;19.39;60.94
72548;BME280;60570;50.848;6.776;2023-05-22T04:50:12;100289.31;;;19.42;60.92
72548;BME280;60570;50.848;6.776;2023-05-22T04:51:15;100290.91;;;19.39;60.66
72548;BME280;60570;50.848;6.776;2023-05-22T04:52:17;100292.13;;;19.42;60.94
72548;BME280;60570;50.848;6.776;2023-05-22T04:53:19;100289.72;;;19.40;60.84
72548;BME280;60570;50.848;6.776;2023-05-22T04:54:19;100286.09;;;19.40;60.94
72548;BME280;60570;50.848;6.776;2023-05-22T04:55:21;100291.72;;;19.40;60.62
72548;BME280;60570;50.848;6.776;2023-05-22T04:56:22;100287.31;;;19.39;60.95
72548;BME280;60570;50.848;6.776;2023-05-22T04:57:23;100285.28;;;19.39;60.95
72548;BME280;60570;50.848;6.776;2023-05-22T04:58:25;100284.09;;;19.40;61.16
72548;BME280;60570;50.848;6.776;2023-05-22T04:59:27;100287.31;;;19.39;60.88
72548;BME280;60570;50.848;6.776;2023-05-22T05:00:28;100294.94;;;19.42;61.11
72548;BME280;60570;50.848;6.776;2023-05-22T05:01:29;100295.34;;;19.40;60.95
72548;BME280;60570;50.848;6.776;2023-05-22T05:02:30;100287.72;;;19.41;60.84
72548;BME280;60570;50.848;6.776;2023-05-22T05:03:32;100286.09;;;19.40;61.08
72548;BME280;60570;50.848;6.776;2023-05-22T05:04:33;100284.88;;;19.37;60.95
72548;BME280;60570;50.848;6.776;2023-05-22T05:05:35;100288.50;;;19.38;61.08
72548;BME280;60570;50.848;6.776;2023-05-22T05:06:35;100286.50;;;19.38;60.86
72548;BME280;60570;50.848;6.776;2023-05-22T05:07:39;100289.72;;;19.40;60.79
72548;BME280;60570;50.848;6.776;2023-05-22T05:08:40;100286.91;;;19.40;61.04
72548;BME280;60570;50.848;6.776;2023-05-22T05:09:43;100295.34;;;19.40;61.13
72548;BME280;60570;50.848;6.776;2023-05-22T05:10:44;100293.31;;;19.37;60.93
72548;BME280;60570;50.848;6.776;2023-05-22T05:11:45;100288.50;;;19.38;60.78
72548;BME280;60570;50.848;6.776;2023-05-22T05:12:46;100292.53;;;19.40;60.88
72548;BME280;60570;50.848;6.776;2023-05-22T05:13:48;100290.13;;;19.39;60.81
72548;BME280;60570;50.848;6.776;2023-05-22T05:14:48;100287.31;;;19.39;60.79
72548;BME280;60570;50.848;6.776;2023-05-22T05:15:50;100298.94;;;19.37;60.91
72548;BME280;60570;50.848;6.776;2023-05-22T05:16:51;100296.13;;;19.37;61.07
72548;BME280;60570;50.848;6.776;2023-05-22T05:17:53;100292.53;;;19.37;61.07
72548;BME280;60570;50.848;6.776;2023-05-22T05:18:54;100295.75;;;19.39;61.24
72548;BME280;60570;50.848;6.776;2023-05-22T05:19:56;100300.56;;;19.38;60.97
72548;BME280;60570;50.848;6.776;2023-05-22T05:20:56;100302.59;;;19.38;61.20
72548;BME280;60570;50.848;6.776;2023-05-22T05:21:58;100295.34;;;19.40;61.11
72548;BME280;60570;50.848;6.776;2023-05-22T05:23:00;100301.00;;;19.40;61.13
72548;BME280;60570;50.848;6.776;2023-05-22T05:24:02;100295.75;;;19.39;61.16
72548;BME280;60570;50.848;6.776;2023-05-22T05:25:04;100294.53;;;19.36;61.08
72548;BME280;60570;50.848;6.776;2023-05-22T05:26:06;100300.16;;;19.36;61.16
72548;BME280;60570;50.848;6.776;2023-05-22T05:27:07;100296.53;;;19.36;61.29
72548;BME280;60570;50.848;6.776;2023-05-22T05:28:08;100307.00;;;19.35;61.11
72548;BME280;60570;50.848;6.776;2023-05-22T05:29:11;100299.75;;;19.34;61.22